Time;durP1;ratioP1;P1;durP2;ratioP2;P2;SDS_P1;SDS_P2;PMS_P1;PMS_P2;Temp;Humidity;BMP_temperature;BMP_pressure;BME280_temperature;BME280_humidity;BME280_pressure;Samples;Min_cycle;Max_cycle;Signal;HPM_P1;HPM_P2
2021/05/23 00:00:00;;;;;;;5.30;3.63;;;;;;;;;;5015709;28;20057;-58
2021/05/23 00:02:27;;;;;;;7.68;4.28;;;;;;;;;;5033483;28;20037;-58
2021/05/23 00:04:53;;;;;;;5.70;3.90;;;;;;;;;;5033404;28;20045;-59
2021/05/23 00:07:26;;;;;;;7.78;4.18;;;;;;;;;;5033562;28;20420;-57
2021/05/23 00:09:54;;;;;;;6.20;4.13;;;;;;;;;;5033454;28;20095;-59
2021/05/23 00:12:22;;;;;;;11.63;4.20;;;;;;;;;;5033433;28;20057;-59
2021/05/23 00:14:48;;;;;;;6.88;4.45;;;;;;;;;;5033347;28;20029;-58
2021/05/23 00:17:15;;;;;;;5.68;4.30;;;;;;;;;;5033345;28;20369;-58
2021/05/23 00:19:42;;;;;;;7.95;4.38;;;;;;;;;;5033323;28;20033;-58
2021/05/23 00:22:09;;;;;;;8.60;4.40;;;;;;;;;;5033228;28;20025;-58
2021/05/23 00:24:36;;;;;;;6.45;4.20;;;;;;;;;;5032125;28;20076;-57
2021/05/23 00:27:03;;;;;;;9.88;4.60;;;;;;;;;;5032878;28;20029;-59
2021/05/23 00:29:29;;;;;;;8.20;4.43;;;;;;;;;;5033007;28;20030;-58
2021/05/23 00:31:56;;;;;;;6.82;4.57;;;;;;;;;;5032993;28;20032;-58
2021/05/23 00:34:23;;;;;;;6.15;4.50;;;;;;;;;;5033075;28;20093;-59
2021/05/23 00:36:51;;;;;;;7.32;4.22;;;;;;;;;;5033009;28;20030;-59
2021/05/23 00:39:18;;;;;;;7.17;4.97;;;;;;;;;;5032943;28;20067;-58
2021/05/23 00:41:45;;;;;;;10.07;4.33;;;;;;;;;;5033053;28;20023;-58
2021/05/23 00:44:11;;;;;;;6.60;4.57;;;;;;;;;;5032846;28;20046;-59
2021/05/23 00:46:38;;;;;;;7.13;3.80;;;;;;;;;;5032817;28;20056;-58
2021/05/23 00:49:05;;;;;;;6.13;3.17;;;;;;;;;;5032711;28;20032;-58
2021/05/23 00:51:32;;;;;;;5.13;2.70;;;;;;;;;;5032879;28;20052;-58
2021/05/23 00:53:58;;;;;;;10.33;3.10;;;;;;;;;;5032785;28;20029;-57
2021/05/23 00:56:34;;;;;;;;;;;;;;;;;;5033069;28;20049;-57
2021/05/23 00:59:08;;;;;;;5.83;3.03;;;;;;;;;;5033663;28;19917;-59
2021/05/23 01:01:35;;;;;;;5.30;3.17;;;;;;;;;;5032711;28;20075;-58
2021/05/23 01:04:02;;;;;;;4.87;3.20;;;;;;;;;;5032386;28;20621;-58
2021/05/23 01:06:29;;;;;;;6.03;3.90;;;;;;;;;;5032709;28;20384;-58
2021/05/23 01:08:56;;;;;;;8.73;3.60;;;;;;;;;;5032502;28;20029;-58
2021/05/23 01:11:45;;;;;;;5.43;2.93;;;;;;;;;;5032772;28;20013;-58
2021/05/23 01:14:30;;;;;;;8.43;3.40;;;;;;;;;;5032397;28;20417;-58
2021/05/23 01:16:58;;;;;;;8.85;4.00;;;;;;;;;;5032695;28;20025;-58
2021/05/23 01:19:28;;;;;;;4.80;3.70;;;;;;;;;;5032240;28;20045;-58
2021/05/23 01:22:00;;;;;;;7.50;4.10;;;;;;;;;;5032308;28;20399;-58
2021/05/23 01:24:31;;;;;;;6.70;3.77;;;;;;;;;;5032356;28;20049;-58
2021/05/23 01:26:58;;;;;;;8.60;4.40;;;;;;;;;;5032491;28;20515;-58
2021/05/23 01:29:25;;;;;;;6.83;4.43;;;;;;;;;;5032339;28;20053;-58
2021/05/23 01:31:54;;;;;;;7.70;3.87;;;;;;;;;;5032408;28;20065;-58
2021/05/23 01:34:24;;;;;;;7.47;4.40;;;;;;;;;;5032340;28;20042;-58
2021/05/23 01:36:52;;;;;;;6.27;4.50;;;;;;;;;;5033488;28;20104;-58
2021/05/23 01:39:19;;;;;;;4.73;4.00;;;;;;;;;;5036152;28;20036;-58
2021/05/23 01:41:46;;;;;;;14.43;5.00;;;;;;;;;;5036143;28;20025;-58
2021/05/23 01:44:13;;;;;;;7.00;4.53;;;;;;;;;;5036112;28;20037;-58
2021/05/23 01:46:40;;;;;;;5.00;3.90;;;;;;;;;;5036156;28;20025;-59
2021/05/23 01:49:08;;;;;;;4.93;3.80;;;;;;;;;;5035749;28;20030;-58
2021/05/23 01:51:35;;;;;;;9.20;5.10;;;;;;;;;;5035990;28;20434;-58
2021/05/23 01:54:03;;;;;;;5.97;3.90;;;;;;;;;;5035962;28;20365;-58
2021/05/23 01:56:30;;;;;;;9.33;5.57;;;;;;;;;;5036050;28;20037;-58
2021/05/23 01:59:03;;;;;;;12.47;5.70;;;;;;;;;;5036562;28;20053;-59
2021/05/23 02:01:31;;;;;;;6.73;5.00;;;;;;;;;;5017961;28;20036;-58
2021/05/23 02:04:00;;;;;;;6.37;3.83;;;;;;;;;;5035823;28;20037;-58
2021/05/23 02:06:27;;;;;;;4.97;3.70;;;;;;;;;;5035769;28;20064;-58
2021/05/23 02:08:55;;;;;;;6.30;3.97;;;;;;;;;;5055429;28;20067;-58
2021/05/23 02:11:24;;;;;;;6.73;3.87;;;;;;;;;;5055864;28;20057;-58
2021/05/23 02:13:57;;;;;;;15.17;4.83;;;;;;;;;;5055688;28;20484;-58
2021/05/23 02:16:27;;;;;;;6.67;4.50;;;;;;;;;;5055557;28;20460;-58
2021/05/23 02:19:04;;;;;;;5.50;4.00;;;;;;;;;;5055153;28;20329;-58
2021/05/23 02:21:39;;;;;;;9.40;3.97;;;;;;;;;;5055246;28;20052;-58
2021/05/23 02:24:13;;;;;;;13.63;4.97;;;;;;;;;;5054746;28;20029;-58
2021/05/23 02:26:41;;;;;;;10.48;7.28;;;;;;;;;;5054973;28;20033;-58
2021/05/23 02:29:08;;;;;;;8.57;5.47;;;;;;;;;;5037512;28;20400;-58
2021/05/23 02:31:35;;;;;;;10.73;4.57;;;;;;;;;;5055410;28;20028;-58
2021/05/23 02:34:15;;;;;;;19.63;5.57;;;;;;;;;;5055085;28;20384;-58
2021/05/23 02:36:44;;;;;;;10.00;4.93;;;;;;;;;;5053725;28;20037;-58
2021/05/23 02:39:11;;;;;;;16.50;5.90;;;;;;;;;;5054690;28;20040;-58
2021/05/23 02:41:40;;;;;;;8.77;5.50;;;;;;;;;;5054823;28;20416;-58
2021/05/23 02:44:12;;;;;;;13.33;6.17;;;;;;;;;;5054910;28;20033;-58
2021/05/23 02:46:59;;;;;;;11.57;5.20;;;;;;;;;;5055010;28;20467;-58
2021/05/23 02:49:36;;;;;;;7.53;4.77;;;;;;;;;;5053607;28;20033;-58
2021/05/23 02:52:04;;;;;;;15.83;4.60;;;;;;;;;;5052443;28;20476;-58
2021/05/23 02:54:31;;;;;;;9.97;5.43;;;;;;;;;;5054706;28;20140;-58
2021/05/23 02:56:58;;;;;;;8.07;5.53;;;;;;;;;;5054864;28;20105;-58
2021/05/23 02:59:25;;;;;;;12.43;6.27;;;;;;;;;;5041207;28;20053;-58
2021/05/23 03:01:52;;;;;;;8.67;6.10;;;;;;;;;;5034618;28;20553;-58
2021/05/23 03:04:22;;;;;;;16.47;5.63;;;;;;;;;;5034489;28;20041;-58
2021/05/23 03:06:52;;;;;;;7.73;5.20;;;;;;;;;;5034594;28;20159;-57
2021/05/23 03:09:19;;;;;;;7.53;5.13;;;;;;;;;;5034519;28;20512;-58
2021/05/23 03:11:47;;;;;;;10.03;5.23;;;;;;;;;;5034791;28;20052;-58
2021/05/23 03:14:15;;;;;;;13.20;4.90;;;;;;;;;;5016724;28;20448;-58
2021/05/23 03:16:42;;;;;;;11.87;5.27;;;;;;;;;;5034501;28;20104;-58
2021/05/23 03:19:09;;;;;;;13.40;4.50;;;;;;;;;;5034388;28;20104;-58
2021/05/23 03:21:37;;;;;;;9.20;5.17;;;;;;;;;;5034165;28;20387;-57
2021/05/23 03:24:04;;;;;;;8.20;4.60;;;;;;;;;;5034211;28;20041;-58
2021/05/23 03:26:32;;;;;;;9.60;6.20;;;;;;;;;;5034267;28;20416;-57
2021/05/23 03:28:59;;;;;;;8.30;4.87;;;;;;;;;;5034157;28;20034;-58
2021/05/23 03:31:26;;;;;;;9.17;5.83;;;;;;;;;;5034265;28;20021;-58
2021/05/23 03:33:54;;;;;;;9.50;5.37;;;;;;;;;;5034290;28;20036;-57
2021/05/23 03:36:20;;;;;;;8.77;5.33;;;;;;;;;;5034183;28;20113;-58
2021/05/23 03:38:48;;;;;;;8.90;4.87;;;;;;;;;;5033958;28;20397;-58
2021/05/23 03:41:16;;;;;;;8.73;5.60;;;;;;;;;;5034056;28;20021;-57
2021/05/23 03:43:42;;;;;;;9.00;6.00;;;;;;;;;;5033767;28;20041;-57
2021/05/23 03:46:09;;;;;;;7.73;5.57;;;;;;;;;;5032642;28;20029;-57
2021/05/23 03:48:36;;;;;;;8.37;4.73;;;;;;;;;;5033851;28;20392;-58
2021/05/23 03:51:03;;;;;;;12.17;5.13;;;;;;;;;;5033815;28;20045;-58
2021/05/23 03:53:30;;;;;;;7.00;4.90;;;;;;;;;;5033921;28;20022;-58
2021/05/23 03:55:57;;;;;;;8.17;5.07;;;;;;;;;;5033726;28;20029;-57
2021/05/23 03:58:23;;;;;;;7.17;4.73;;;;;;;;;;5034363;28;20497;-58
2021/05/23 04:00:50;;;;;;;7.77;5.43;;;;;;;;;;5032571;28;20025;-58
2021/05/23 04:03:26;;;;;;;7.00;4.70;;;;;;;;;;5053334;28;20075;-58
2021/05/23 04:06:04;;;;;;;6.13;4.73;;;;;;;;;;5052154;28;20048;-58
2021/05/23 04:08:34;;;;;;;8.93;4.13;;;;;;;;;;5053391;28;20029;-58
2021/05/23 04:11:15;;;;;;;6.13;3.80;;;;;;;;;;5053209;28;20460;-58
2021/05/23 04:13:49;;;;;;;6.60;4.13;;;;;;;;;;5053039;28;20033;-57
2021/05/23 04:16:19;;;;;;;8.50;4.37;;;;;;;;;;5053347;28;20108;-58
2021/05/23 04:18:46;;;;;;;9.40;4.40;;;;;;;;;;5053183;28;20021;-57
2021/05/23 04:21:14;;;;;;;7.73;4.43;;;;;;;;;;5053069;28;20028;-57
2021/05/23 04:23:44;;;;;;;6.07;4.37;;;;;;;;;;5053055;28;20432;-57
2021/05/23 04:26:12;;;;;;;7.03;3.60;;;;;;;;;;5053177;28;20365;-58
2021/05/23 04:28:39;;;;;;;10.80;4.37;;;;;;;;;;5053086;28;20033;-57
2021/05/23 04:31:06;;;;;;;6.57;3.93;;;;;;;;;;5052887;28;20075;-58
2021/05/23 04:33:33;;;;;;;5.80;3.70;;;;;;;;;;5052952;28;20518;-58
2021/05/23 04:36:00;;;;;;;7.73;4.20;;;;;;;;;;5053014;28;20021;-58
2021/05/23 04:38:27;;;;;;;7.77;4.20;;;;;;;;;;5052847;28;20021;-58
2021/05/23 04:40:54;;;;;;;9.50;5.40;;;;;;;;;;5052965;28;20029;-58
2021/05/23 04:43:21;;;;;;;7.73;4.97;;;;;;;;;;5052482;28;20078;-57
2021/05/23 04:45:49;;;;;;;11.87;5.50;;;;;;;;;;5052686;28;20029;-57
2021/05/23 04:48:16;;;;;;;11.83;5.87;;;;;;;;;;5052727;28;20024;-58
2021/05/23 04:50:43;;;;;;;12.37;6.83;;;;;;;;;;5052737;28;20055;-57
2021/05/23 04:53:11;;;;;;;9.23;5.87;;;;;;;;;;5052656;28;20025;-57
2021/05/23 04:55:37;;;;;;;8.03;5.73;;;;;;;;;;5052803;28;20024;-57
2021/05/23 04:58:05;;;;;;;9.13;6.07;;;;;;;;;;5051906;28;20387;-58
2021/05/23 05:00:32;;;;;;;8.00;4.83;;;;;;;;;;5032608;28;20030;-58
2021/05/23 05:02:59;;;;;;;13.43;4.37;;;;;;;;;;5032646;28;20060;-58
2021/05/23 05:05:26;;;;;;;12.23;6.37;;;;;;;;;;5032522;28;20511;-58
2021/05/23 05:07:53;;;;;;;7.47;4.37;;;;;;;;;;5052246;28;20017;-58
2021/05/23 05:10:20;;;;;;;7.27;3.93;;;;;;;;;;5052464;28;20411;-57
2021/05/23 05:12:47;;;;;;;9.97;4.00;;;;;;;;;;5055126;28;20052;-57
2021/05/23 05:15:15;;;;;;;10.47;4.53;;;;;;;;;;5056431;28;20052;-58
2021/05/23 05:17:42;;;;;;;6.80;4.03;;;;;;;;;;5056544;28;20021;-57
2021/05/23 05:20:10;;;;;;;7.93;4.07;;;;;;;;;;5056577;28;20032;-58
2021/05/23 05:22:37;;;;;;;6.50;4.27;;;;;;;;;;5056741;28;20078;-57
2021/05/23 05:25:04;;;;;;;7.67;4.53;;;;;;;;;;5056638;28;20110;-58
2021/05/23 05:27:31;;;;;;;7.73;4.60;;;;;;;;;;5056353;28;20112;-57
2021/05/23 05:29:58;;;;;;;5.63;4.40;;;;;;;;;;5056231;28;20029;-58
2021/05/23 05:32:25;;;;;;;6.63;4.47;;;;;;;;;;5056198;28;20029;-58
2021/05/23 05:34:52;;;;;;;8.77;5.27;;;;;;;;;;5056164;28;20032;-59
2021/05/23 05:37:18;;;;;;;8.53;5.40;;;;;;;;;;5056175;28;20021;-58
2021/05/23 05:39:45;;;;;;;9.37;5.17;;;;;;;;;;5056112;28;20025;-58
2021/05/23 05:42:12;;;;;;;11.90;5.80;;;;;;;;;;5056212;28;20546;-58
2021/05/23 05:44:39;;;;;;;11.37;5.57;;;;;;;;;;5055830;28;20377;-58
2021/05/23 05:47:05;;;;;;;11.10;5.70;;;;;;;;;;5055933;28;20357;-57
2021/05/23 05:49:32;;;;;;;8.83;5.87;;;;;;;;;;5055795;28;20043;-56
2021/05/23 05:51:59;;;;;;;13.10;5.93;;;;;;;;;;5055951;28;20049;-58
2021/05/23 05:54:26;;;;;;;8.07;5.50;;;;;;;;;;5056027;28;20035;-58
2021/05/23 05:56:52;;;;;;;10.07;5.60;;;;;;;;;;5056100;28;20111;-59
2021/05/23 05:59:19;;;;;;;15.20;4.97;;;;;;;;;;5038520;28;20057;-59
2021/05/23 06:01:46;;;;;;;14.27;8.17;;;;;;;;;;5055695;28;20025;-58
2021/05/23 06:04:16;;;;;;;7.77;5.70;;;;;;;;;;5055666;28;20506;-57
2021/05/23 06:06:43;;;;;;;11.13;6.30;;;;;;;;;;5055762;28;20090;-58
2021/05/23 06:09:09;;;;;;;10.20;5.73;;;;;;;;;;5055555;28;20021;-59
2021/05/23 06:11:36;;;;;;;8.00;5.50;;;;;;;;;;5055575;28;20017;-58
2021/05/23 06:14:03;;;;;;;8.07;5.10;;;;;;;;;;5055529;28;20036;-58
2021/05/23 06:16:30;;;;;;;10.63;6.57;;;;;;;;;;5055617;28;20036;-58
2021/05/23 06:19:10;;;;;;;8.70;5.50;;;;;;;;;;5055520;28;20370;-58
2021/05/23 06:21:37;;;;;;;10.33;6.43;;;;;;;;;;5055574;28;20040;-58
2021/05/23 06:24:04;;;;;;;7.73;5.47;;;;;;;;;;5054036;28;20086;-58
2021/05/23 06:26:31;;;;;;;8.87;5.47;;;;;;;;;;5055345;28;20029;-58
2021/05/23 06:28:58;;;;;;;8.00;5.40;;;;;;;;;;5055336;28;20025;-58
2021/05/23 06:31:25;;;;;;;8.53;5.30;;;;;;;;;;5055171;28;20029;-58
2021/05/23 06:33:52;;;;;;;9.57;5.30;;;;;;;;;;5055116;28;20377;-58
2021/05/23 06:36:18;;;;;;;6.23;4.57;;;;;;;;;;5055129;28;20029;-58
2021/05/23 06:38:45;;;;;;;7.67;5.43;;;;;;;;;;5055084;28;20100;-58
2021/05/23 06:41:12;;;;;;;7.10;5.47;;;;;;;;;;5054952;28;20122;-58
2021/05/23 06:43:39;;;;;;;9.00;5.93;;;;;;;;;;5054857;28;20139;-58
2021/05/23 06:46:05;;;;;;;10.03;5.70;;;;;;;;;;5054903;28;20098;-56
2021/05/23 06:48:32;;;;;;;8.20;6.20;;;;;;;;;;5054896;28;20037;-57
2021/05/23 06:51:00;;;;;;;8.27;5.50;;;;;;;;;;5054923;28;20391;-58
2021/05/23 06:53:26;;;;;;;10.80;5.90;;;;;;;;;;5054933;28;20017;-58
2021/05/23 06:55:53;;;;;;;8.27;5.80;;;;;;;;;;5037131;28;20032;-58
2021/05/23 06:58:20;;;;;;;7.87;5.47;;;;;;;;;;5055078;28;20084;-57
2021/05/23 07:00:47;;;;;;;10.47;5.80;;;;;;;;;;5054717;28;20538;-57
2021/05/23 07:03:14;;;;;;;9.57;5.53;;;;;;;;;;5054810;28;20024;-57
2021/05/23 07:05:40;;;;;;;9.63;5.80;;;;;;;;;;5054688;28;20029;-58
2021/05/23 07:08:07;;;;;;;10.63;5.53;;;;;;;;;;5054545;28;20423;-58
2021/05/23 07:10:34;;;;;;;11.33;5.90;;;;;;;;;;5054768;28;20024;-57
2021/05/23 07:13:01;;;;;;;9.70;5.80;;;;;;;;;;5054383;28;20578;-59
2021/05/23 07:15:27;;;;;;;11.47;5.97;;;;;;;;;;5054501;28;20027;-57
2021/05/23 07:17:57;;;;;;;9.27;6.13;;;;;;;;;;5054405;28;20036;-57
2021/05/23 07:20:24;;;;;;;7.80;5.87;;;;;;;;;;5054391;28;20108;-57
2021/05/23 07:22:51;;;;;;;8.43;5.07;;;;;;;;;;5054356;28;20044;-58
2021/05/23 07:25:18;;;;;;;6.53;4.80;;;;;;;;;;5054163;28;20052;-57
2021/05/23 07:27:45;;;;;;;10.80;5.57;;;;;;;;;;5054088;28;20379;-58
2021/05/23 07:30:12;;;;;;;7.20;5.23;;;;;;;;;;5054069;28;20033;-59
2021/05/23 07:32:39;;;;;;;9.83;5.80;;;;;;;;;;5054158;28;20025;-58
2021/05/23 07:35:06;;;;;;;6.83;4.50;;;;;;;;;;5053861;28;20160;-57
2021/05/23 07:37:33;;;;;;;7.43;4.80;;;;;;;;;;5053881;28;20029;-57
2021/05/23 07:40:00;;;;;;;7.93;5.40;;;;;;;;;;5053894;28;20037;-58
2021/05/23 07:42:27;;;;;;;9.47;6.23;;;;;;;;;;5053892;28;20021;-58
2021/05/23 07:44:54;;;;;;;8.87;6.40;;;;;;;;;;5053755;28;20128;-58
2021/05/23 07:47:21;;;;;;;9.20;6.13;;;;;;;;;;5053806;28;20035;-58
2021/05/23 07:49:48;;;;;;;8.27;6.67;;;;;;;;;;5053732;28;20025;-59
2021/05/23 07:52:15;;;;;;;16.47;6.80;;;;;;;;;;5053720;28;20139;-57
2021/05/23 07:54:42;;;;;;;11.17;6.60;;;;;;;;;;5053655;28;20056;-57
2021/05/23 07:57:10;;;;;;;8.63;6.77;;;;;;;;;;5053828;28;20048;-58
2021/05/23 07:59:37;;;;;;;10.07;7.17;;;;;;;;;;5054064;28;20060;-59
2021/05/23 08:02:04;;;;;;;8.17;6.73;;;;;;;;;;5053764;28;20051;-58
2021/05/23 08:04:30;;;;;;;8.53;6.77;;;;;;;;;;5053512;28;20071;-58
2021/05/23 08:06:57;;;;;;;11.07;7.00;;;;;;;;;;5053380;28;20029;-58
2021/05/23 08:09:24;;;;;;;7.63;6.23;;;;;;;;;;5053207;28;20035;-58
2021/05/23 08:11:51;;;;;;;8.73;6.37;;;;;;;;;;5053323;28;20025;-58
2021/05/23 08:14:18;;;;;;;9.20;6.33;;;;;;;;;;5053380;28;20040;-58
2021/05/23 08:16:46;;;;;;;7.67;5.53;;;;;;;;;;5053351;28;20028;-57
2021/05/23 08:19:13;;;;;;;8.53;6.33;;;;;;;;;;5053067;28;20053;-57
2021/05/23 08:21:40;;;;;;;10.13;5.73;;;;;;;;;;5053094;28;20029;-57
2021/05/23 08:24:07;;;;;;;8.90;5.73;;;;;;;;;;5052983;28;20044;-58
2021/05/23 08:26:34;;;;;;;8.97;6.47;;;;;;;;;;5053095;28;20025;-58
2021/05/23 08:29:02;;;;;;;11.20;6.50;;;;;;;;;;5053120;28;20494;-58
2021/05/23 08:31:29;;;;;;;9.90;5.87;;;;;;;;;;5053112;28;20021;-58
2021/05/23 08:33:55;;;;;;;11.23;6.63;;;;;;;;;;5053091;28;20117;-58
2021/05/23 08:36:22;;;;;;;7.67;5.37;;;;;;;;;;5052923;28;20083;-58
2021/05/23 08:38:49;;;;;;;8.73;5.70;;;;;;;;;;5052825;28;20028;-58
2021/05/23 08:41:17;;;;;;;8.10;6.03;;;;;;;;;;5052990;28;20100;-58
2021/05/23 08:43:45;;;;;;;8.90;6.20;;;;;;;;;;5052787;28;20487;-58
2021/05/23 08:46:12;;;;;;;11.43;7.70;;;;;;;;;;5052344;28;20490;-57
2021/05/23 08:48:41;;;;;;;9.33;5.70;;;;;;;;;;5052562;28;20086;-58
2021/05/23 08:51:08;;;;;;;8.63;5.47;;;;;;;;;;5052883;28;20095;-58
2021/05/23 08:53:35;;;;;;;7.00;5.20;;;;;;;;;;5052643;28;20472;-58
2021/05/23 08:56:02;;;;;;;7.87;5.53;;;;;;;;;;5052812;28;20025;-57
2021/05/23 08:58:29;;;;;;;11.13;5.20;;;;;;;;;;5052948;28;20041;-59
2021/05/23 09:00:56;;;;;;;8.53;5.67;;;;;;;;;;5052516;28;20036;-58
2021/05/23 09:03:23;;;;;;;8.07;5.17;;;;;;;;;;5052470;28;20052;-59
2021/05/23 09:05:56;;;;;;;6.23;4.87;;;;;;;;;;5052627;28;20491;-58
2021/05/23 09:08:28;;;;;;;7.53;5.20;;;;;;;;;;5034699;28;20025;-58
2021/05/23 09:10:59;;;;;;;9.27;6.17;;;;;;;;;;5053004;28;20028;-58
2021/05/23 09:13:33;;;;;;;8.80;5.00;;;;;;;;;;5052688;28;20112;-58
2021/05/23 09:16:06;;;;;;;7.90;5.18;;;;;;;;;;5052394;28;20087;-58
2021/05/23 09:19:02;;;;;;;7.10;4.63;;;;;;;;;;5052312;28;20068;-57
2021/05/23 09:21:38;;;;;;;8.10;5.00;;;;;;;;;;5031788;28;20025;-58
2021/05/23 09:24:10;;;;;;;10.10;5.27;;;;;;;;;;5052311;28;20400;-58
2021/05/23 09:26:42;;;;;;;7.07;5.10;;;;;;;;;;5052375;28;20417;-58
2021/05/23 09:29:12;;;;;;;8.80;5.63;;;;;;;;;;5052432;28;20054;-58
2021/05/23 09:31:39;;;;;;;8.83;5.33;;;;;;;;;;5052444;28;20457;-58
2021/05/23 09:34:06;;;;;;;7.77;5.17;;;;;;;;;;5052298;28;20029;-58
2021/05/23 09:36:53;;;;;;;7.20;4.97;;;;;;;;;;5052387;28;20028;-58
2021/05/23 09:39:20;;;;;;;6.93;4.43;;;;;;;;;;5052548;28;20028;-58
2021/05/23 09:41:48;;;;;;;7.40;5.00;;;;;;;;;;5052286;28;20033;-58
2021/05/23 09:44:27;;;;;;;7.43;5.10;;;;;;;;;;5052222;28;20383;-58
2021/05/23 09:46:59;;;;;;;12.77;4.80;;;;;;;;;;5052179;28;20408;-58
2021/05/23 09:49:27;;;;;;;7.57;5.10;;;;;;;;;;5052126;28;20017;-58
2021/05/23 09:51:54;;;;;;;7.20;4.67;;;;;;;;;;5052025;28;20403;-58
2021/05/23 09:54:22;;;;;;;8.70;5.07;;;;;;;;;;5052241;28;20029;-58
2021/05/23 09:56:49;;;;;;;8.30;4.47;;;;;;;;;;5052053;28;20480;-58
2021/05/23 09:59:23;;;;;;;7.60;5.20;;;;;;;;;;5055543;28;20086;-58
2021/05/23 10:01:50;;;;;;;11.57;4.90;;;;;;;;;;5055890;28;20480;-58
2021/05/23 10:04:22;;;;;;;10.07;5.30;;;;;;;;;;5055671;28;20430;-58
2021/05/23 10:06:58;;;;;;;7.07;5.07;;;;;;;;;;5055621;28;20033;-58
2021/05/23 10:09:26;;;;;;;7.87;4.80;;;;;;;;;;5055644;28;20039;-58
2021/05/23 10:11:53;;;;;;;6.93;4.50;;;;;;;;;;5055579;28;20440;-58
2021/05/23 10:14:19;;;;;;;10.03;5.40;;;;;;;;;;5055460;28;20110;-58
2021/05/23 10:16:50;;;;;;;8.97;4.87;;;;;;;;;;5055810;28;20031;-58
2021/05/23 10:19:22;;;;;;;20.73;6.47;;;;;;;;;;5055505;28;20061;-58
2021/05/23 10:21:50;;;;;;;8.37;5.43;;;;;;;;;;5055467;28;20417;-58
2021/05/23 10:24:18;;;;;;;8.90;5.50;;;;;;;;;;5055402;28;20475;-58
2021/05/23 10:26:45;;;;;;;8.60;5.30;;;;;;;;;;5055379;28;20484;-58
2021/05/23 10:29:12;;;;;;;7.07;5.23;;;;;;;;;;5055315;28;20079;-58
2021/05/23 10:31:39;;;;;;;7.07;5.23;;;;;;;;;;5055420;28;20021;-58
2021/05/23 10:34:06;;;;;;;7.27;5.10;;;;;;;;;;5055288;28;20094;-58
2021/05/23 10:36:37;;;;;;;6.67;4.73;;;;;;;;;;5055039;28;20087;-58
2021/05/23 10:39:06;;;;;;;7.07;5.43;;;;;;;;;;5055086;28;20118;-58
2021/05/23 10:41:33;;;;;;;8.13;5.10;;;;;;;;;;5055030;28;20024;-58
2021/05/23 10:44:00;;;;;;;8.57;4.50;;;;;;;;;;5054917;28;20071;-58
2021/05/23 10:46:27;;;;;;;7.13;5.43;;;;;;;;;;5055110;28;20498;-58
2021/05/23 10:48:59;;;;;;;8.53;5.27;;;;;;;;;;5054900;28;20119;-58
2021/05/23 10:51:27;;;;;;;7.67;4.70;;;;;;;;;;5054959;28;20021;-58
2021/05/23 10:53:55;;;;;;;11.57;5.03;;;;;;;;;;5054843;28;20421;-58
2021/05/23 10:56:32;;;;;;;9.57;5.37;;;;;;;;;;5054724;28;20017;-58
2021/05/23 10:59:02;;;;;;;6.50;4.20;;;;;;;;;;5055150;28;20057;-58
2021/05/23 11:01:54;;;;;;;9.70;4.60;;;;;;;;;;5054680;28;20025;-58
2021/05/23 11:04:24;;;;;;;7.90;4.67;;;;;;;;;;5054692;28;20495;-58
2021/05/23 11:06:51;;;;;;;11.83;5.37;;;;;;;;;;5054602;28;20071;-58
2021/05/23 11:09:23;;;;;;;9.03;5.23;;;;;;;;;;5053932;28;20108;-58
2021/05/23 11:11:50;;;;;;;6.47;4.60;;;;;;;;;;5054584;28;20471;-58
2021/05/23 11:14:21;;;;;;;7.87;4.80;;;;;;;;;;5036684;28;20464;-58
2021/05/23 11:16:53;;;;;;;8.03;5.00;;;;;;;;;;5054506;28;20467;-58
2021/05/23 11:19:20;;;;;;;8.03;5.17;;;;;;;;;;5054364;28;20021;-58
2021/05/23 11:21:48;;;;;;;10.00;5.07;;;;;;;;;;5054410;28;20025;-58
2021/05/23 11:24:16;;;;;;;7.60;5.33;;;;;;;;;;5036240;28;20044;-58
2021/05/23 11:26:42;;;;;;;7.63;5.00;;;;;;;;;;5054343;28;20200;-58
2021/05/23 11:29:09;;;;;;;7.23;4.90;;;;;;;;;;5054120;28;20029;-58
2021/05/23 11:31:38;;;;;;;10.50;5.23;;;;;;;;;;5054125;28;20380;-58
2021/05/23 11:34:05;;;;;;;7.27;5.20;;;;;;;;;;5054001;28;20029;-58
2021/05/23 11:36:35;;;;;;;7.57;5.33;;;;;;;;;;5054062;28;20115;-58
2021/05/23 11:39:04;;;;;;;11.00;5.53;;;;;;;;;;5053909;28;20036;-58
2021/05/23 11:41:32;;;;;;;7.03;4.80;;;;;;;;;;5054053;28;20095;-58
2021/05/23 11:43:59;;;;;;;9.90;5.47;;;;;;;;;;5053816;28;20411;-58
2021/05/23 11:46:27;;;;;;;7.67;4.93;;;;;;;;;;5053818;28;20031;-58
2021/05/23 11:48:54;;;;;;;8.20;5.90;;;;;;;;;;5053637;28;20033;-58
2021/05/23 11:51:23;;;;;;;8.77;5.77;;;;;;;;;;5053814;28;20060;-58
2021/05/23 11:53:52;;;;;;;9.47;6.03;;;;;;;;;;5035865;28;20052;-58
2021/05/23 11:56:22;;;;;;;11.90;5.60;;;;;;;;;;5053598;28;20029;-58
2021/05/23 11:58:49;;;;;;;9.27;5.70;;;;;;;;;;5054000;28;20064;-58
2021/05/23 12:01:18;;;;;;;11.77;6.73;;;;;;;;;;5033533;28;20503;-58
2021/05/23 12:04:08;;;;;;;11.60;7.50;;;;;;;;;;5033627;28;20161;-58
2021/05/23 12:06:36;;;;;;;9.53;5.10;;;;;;;;;;5033681;28;20018;-58
2021/05/23 12:09:16;;;;;;;9.70;5.70;;;;;;;;;;5033400;28;20691;-58
2021/05/23 12:11:45;;;;;;;9.67;6.10;;;;;;;;;;5033400;28;20376;-58
2021/05/23 12:14:21;;;;;;;7.83;4.77;;;;;;;;;;5033496;28;20377;-58
2021/05/23 12:17:08;;;;;;;8.93;5.30;;;;;;;;;;5033391;28;20060;-58
2021/05/23 12:19:45;;;;;;;9.33;5.73;;;;;;;;;;5033383;28;20287;-58
2021/05/23 12:22:17;;;;;;;12.97;6.63;;;;;;;;;;5032483;28;20270;-58
2021/05/23 12:24:44;;;;;;;9.63;6.63;;;;;;;;;;5033344;28;20309;-58
2021/05/23 12:27:16;;;;;;;8.93;5.67;;;;;;;;;;5033218;28;20409;-58
2021/05/23 12:29:42;;;;;;;12.50;7.63;;;;;;;;;;5033086;28;20334;-58
2021/05/23 12:32:09;;;;;;;12.37;7.10;;;;;;;;;;5033292;28;20029;-58
2021/05/23 12:34:42;;;;;;;11.53;6.93;;;;;;;;;;5033139;28;20259;-58
2021/05/23 12:37:09;;;;;;;10.23;6.63;;;;;;;;;;5033089;28;20263;-58
2021/05/23 12:39:35;;;;;;;10.47;6.40;;;;;;;;;;5032932;28;20609;-57
2021/05/23 12:42:04;;;;;;;14.97;7.37;;;;;;;;;;5033266;28;20286;-58
2021/05/23 12:44:31;;;;;;;11.37;7.10;;;;;;;;;;5032984;28;20441;-57
2021/05/23 12:47:09;;;;;;;10.00;6.80;;;;;;;;;;5032825;28;20247;-58
2021/05/23 12:49:44;;;;;;;12.07;7.33;;;;;;;;;;5015139;28;20488;-58
2021/05/23 12:52:12;;;;;;;14.20;6.90;;;;;;;;;;5032872;28;20029;-58
2021/05/23 12:54:40;;;;;;;12.73;7.03;;;;;;;;;;5033054;28;20420;-58
2021/05/23 12:57:07;;;;;;;10.87;7.93;;;;;;;;;;5032887;28;20061;-58
2021/05/23 12:59:41;;;;;;;10.40;7.50;;;;;;;;;;5039402;28;20274;-58
2021/05/23 13:02:09;;;;;;;11.17;7.60;;;;;;;;;;5052748;28;20024;-58
2021/05/23 13:04:36;;;;;;;18.60;9.17;;;;;;;;;;5052649;28;20289;-57
2021/05/23 13:07:04;;;;;;;11.10;8.40;;;;;;;;;;5052487;28;20038;-58
2021/05/23 13:09:32;;;;;;;11.43;8.47;;;;;;;;;;5052520;28;20262;-58
2021/05/23 13:12:00;;;;;;;11.87;8.53;;;;;;;;;;5052641;28;20476;-58
2021/05/23 13:14:28;;;;;;;12.97;8.37;;;;;;;;;;5052497;28;20075;-58
2021/05/23 13:16:57;;;;;;;11.67;8.80;;;;;;;;;;5052514;28;20078;-58
2021/05/23 13:19:24;;;;;;;13.00;9.53;;;;;;;;;;5052410;28;20035;-58
2021/05/23 13:21:52;;;;;;;11.03;7.60;;;;;;;;;;5034572;28;20036;-58
2021/05/23 13:24:25;;;;;;;11.20;8.13;;;;;;;;;;5052228;28;20033;-58
2021/05/23 13:26:54;;;;;;;14.17;7.93;;;;;;;;;;5052391;28;20033;-58
2021/05/23 13:29:21;;;;;;;12.60;8.30;;;;;;;;;;5034651;28;20137;-58
2021/05/23 13:31:48;;;;;;;17.80;9.00;;;;;;;;;;5052289;28;20098;-58
2021/05/23 13:34:14;;;;;;;11.30;7.33;;;;;;;;;;5055787;28;20104;-58
2021/05/23 13:36:42;;;;;;;9.77;7.17;;;;;;;;;;5056390;28;20052;-58
2021/05/23 13:39:10;;;;;;;11.83;6.87;;;;;;;;;;5056178;28;20115;-58
2021/05/23 13:41:40;;;;;;;7.73;6.40;;;;;;;;;;5056382;28;20024;-58
2021/05/23 13:44:07;;;;;;;9.23;6.13;;;;;;;;;;5056071;28;20021;-58
2021/05/23 13:46:37;;;;;;;8.60;6.30;;;;;;;;;;5056039;28;20055;-58
2021/05/23 13:49:08;;;;;;;9.00;6.00;;;;;;;;;;5055957;28;20021;-58
2021/05/23 13:51:35;;;;;;;8.30;5.77;;;;;;;;;;5056122;28;20032;-58
2021/05/23 13:54:02;;;;;;;8.37;5.93;;;;;;;;;;5056041;28;20048;-58
2021/05/23 13:56:29;;;;;;;8.43;5.57;;;;;;;;;;5055903;28;20021;-58
2021/05/23 13:58:56;;;;;;;20.20;6.00;;;;;;;;;;5055813;28;20104;-58
2021/05/23 14:01:23;;;;;;;18.17;5.53;;;;;;;;;;5055310;28;20080;-58
2021/05/23 14:03:49;;;;;;;7.80;5.27;;;;;;;;;;5055781;28;20100;-58
2021/05/23 14:06:16;;;;;;;9.57;5.70;;;;;;;;;;5055752;28;20021;-58
2021/05/23 14:08:43;;;;;;;7.00;5.30;;;;;;;;;;5055697;28;20052;-58
2021/05/23 14:11:09;;;;;;;12.43;5.60;;;;;;;;;;5055702;28;20051;-58
2021/05/23 14:13:37;;;;;;;6.90;5.33;;;;;;;;;;5055661;28;20024;-58
2021/05/23 14:16:04;;;;;;;7.17;5.10;;;;;;;;;;5055587;28;20036;-58
2021/05/23 14:18:33;;;;;;;12.27;5.70;;;;;;;;;;5055524;28;20032;-58
2021/05/23 14:21:01;;;;;;;7.77;5.73;;;;;;;;;;5055743;28;20036;-59
2021/05/23 14:23:28;;;;;;;8.10;6.10;;;;;;;;;;5055525;28;20087;-58
2021/05/23 14:25:55;;;;;;;12.17;7.43;;;;;;;;;;5055435;28;20040;-58
2021/05/23 14:28:22;;;;;;;13.30;7.53;;;;;;;;;;5055521;28;20100;-58
2021/05/23 14:30:49;;;;;;;11.27;6.37;;;;;;;;;;5055309;28;20035;-58
2021/05/23 14:33:20;;;;;;;9.17;5.60;;;;;;;;;;5055292;28;20028;-58
2021/05/23 14:35:47;;;;;;;10.03;6.60;;;;;;;;;;5055181;28;20025;-58
2021/05/23 14:38:13;;;;;;;8.33;6.50;;;;;;;;;;5055084;28;20051;-58
2021/05/23 14:40:40;;;;;;;8.97;6.47;;;;;;;;;;5055070;28;20516;-58
2021/05/23 14:43:07;;;;;;;8.30;5.93;;;;;;;;;;5055007;28;20032;-58
2021/05/23 14:45:34;;;;;;;6.77;5.17;;;;;;;;;;5053933;28;20064;-58